Time;durP1;ratioP1;P1;durP2;ratioP2;P2;SDS_P1;SDS_P2;PMS_P1;PMS_P2;Temp;Humidity;BMP_temperature;BMP_pressure;BME280_temperature;BME280_humidity;BME280_pressure;Samples;Min_cycle;Max_cycle;Signal;HPM_P1;HPM_P2
2022/10/22 00:00:16;;;;;;;0.20;0.20;;;13.90;99.90;;;;;;4876163;29;20129;-76
2022/10/22 00:02:42;;;;;;;0.20;0.20;;;14.00;99.90;;;;;;4858306;29;20045;-76
2022/10/22 00:05:09;;;;;;;0.10;0.10;;;13.90;99.90;;;;;;4883927;29;20044;-75
2022/10/22 00:07:35;;;;;;;0.20;0.20;;;13.90;99.90;;;;;;4873567;29;20101;-76
2022/10/22 00:10:01;;;;;;;0.10;0.10;;;13.90;99.90;;;;;;4871450;29;20057;-77
2022/10/22 00:12:27;;;;;;;0.10;0.10;;;13.90;99.90;;;;;;4876348;29;20128;-76
2022/10/22 00:14:53;;;;;;;0.20;0.20;;;13.80;99.90;;;;;;4878419;29;20120;-76
2022/10/22 00:17:18;;;;;;;0.10;0.10;;;13.90;99.90;;;;;;4877854;29;20409;-76
2022/10/22 00:19:44;;;;;;;0.10;0.10;;;13.90;99.90;;;;;;4861298;29;20036;-76
2022/10/22 00:22:10;;;;;;;0.10;0.10;;;13.80;99.90;;;;;;4860934;29;20061;-75
2022/10/22 00:24:37;;;;;;;0.10;0.10;;;13.80;99.90;;;;;;4878620;29;20039;-77
2022/10/22 00:27:03;;;;;;;0.10;0.10;;;13.80;99.90;;;;;;4859059;29;20045;-76
2022/10/22 00:29:29;;;;;;;0.20;0.20;;;13.80;99.90;;;;;;4879633;29;20092;-75
2022/10/22 00:31:55;;;;;;;0.10;0.10;;;13.80;99.90;;;;;;4873558;29;20493;-76
2022/10/22 00:34:21;;;;;;;0.20;0.20;;;13.70;99.90;;;;;;4875146;29;20053;-77
2022/10/22 00:36:48;;;;;;;0.20;0.20;;;13.80;99.90;;;;;;4877076;29;20041;-76
2022/10/22 00:39:16;;;;;;;0.10;0.10;;;13.80;99.90;;;;;;4876690;29;20051;-76
2022/10/22 00:41:42;;;;;;;0.10;0.10;;;13.70;99.90;;;;;;4859973;29;20045;-76
2022/10/22 00:44:47;;;;;;;0.10;0.10;;;13.70;99.90;;;;;;4877784;29;20144;-77
2022/10/22 00:47:14;;;;;;;0.15;0.15;;;13.70;99.90;;;;;;4876328;29;20140;-76
2022/10/22 00:49:40;;;;;;;0.10;0.10;;;13.60;99.90;;;;;;4871258;29;20041;-76
2022/10/22 00:52:06;;;;;;;0.10;0.10;;;13.70;99.90;;;;;;4857260;29;20056;-75
2022/10/22 00:54:33;;;;;;;0.20;0.20;;;13.60;99.90;;;;;;4858169;29;20045;-76
2022/10/22 00:57:00;;;;;;;0.10;0.10;;;13.70;99.90;;;;;;4858988;29;20049;-76
2022/10/22 00:59:26;;;;;;;0.10;0.10;;;13.70;99.90;;;;;;4872294;29;20042;-76
2022/10/22 01:01:52;;;;;;;0.10;0.10;;;13.70;99.90;;;;;;4874698;29;20040;-76
2022/10/22 01:04:19;;;;;;;0.10;0.10;;;13.70;99.90;;;;;;4877378;29;20057;-77
2022/10/22 01:06:46;;;;;;;0.20;0.20;;;13.60;99.90;;;;;;4860076;29;20071;-76
2022/10/22 01:09:32;;;;;;;0.20;0.20;;;13.60;99.90;;;;;;4877406;29;20493;-77
2022/10/22 01:12:04;;;;;;;0.15;0.15;;;13.60;99.90;;;;;;4875875;29;20631;-76
2022/10/22 01:14:48;;;;;;;0.10;0.10;;;13.70;99.90;;;;;;4860013;29;20064;-76
2022/10/22 01:17:19;;;;;;;0.10;0.10;;;13.60;99.90;;;;;;4860168;29;20049;-76
2022/10/22 01:19:45;;;;;;;0.10;0.10;;;13.60;99.90;;;;;;4877368;29;20049;-77
2022/10/22 01:22:19;;;;;;;0.20;0.20;;;13.60;99.90;;;;;;4874305;29;20041;-76
2022/10/22 01:25:20;;;;;;;0.20;0.20;;;13.60;99.90;;;;;;4859922;29;20049;-76
2022/10/22 01:28:06;;;;;;;0.15;0.15;;;13.60;99.90;;;;;;4854725;29;20049;-76
2022/10/22 01:30:33;;;;;;;0.10;0.10;;;13.60;99.90;;;;;;4837987;29;20049;-77
2022/10/22 01:33:04;;;;;;;0.20;0.20;;;13.50;99.90;;;;;;4859934;29;20116;-77
2022/10/22 01:35:42;;;;;;;0.20;0.20;;;13.60;99.90;;;;;;4860224;29;20045;-76
2022/10/22 01:38:15;;;;;;;0.10;0.10;;;13.50;99.90;;;;;;4876600;29;20060;-77
2022/10/22 01:40:42;;;;;;;0.20;0.20;;;13.50;99.90;;;;;;4860127;29;20045;-77
2022/10/22 01:43:10;;;;;;;0.10;0.10;;;13.60;99.90;;;;;;4874597;29;20055;-77
2022/10/22 01:45:39;;;;;;;0.10;0.10;;;13.60;99.90;;;;;;4860480;29;20100;-76
2022/10/22 01:48:32;;;;;;;0.20;0.20;;;13.50;99.90;;;;;;4875427;29;20049;-76
2022/10/22 01:51:19;;;;;;;0.20;0.20;;;13.50;99.90;;;;;;4878483;29;20037;-77
2022/10/22 01:54:03;;;;;;;0.20;0.20;;;13.50;99.90;;;;;;4878015;29;20053;-77
2022/10/22 01:56:50;;;;;;;0.10;0.10;;;13.50;99.90;;;;;;4879060;29;20551;-76
2022/10/22 01:59:34;;;;;;;0.13;0.13;;;13.50;99.90;;;;;;4859020;29;20500;-77
2022/10/22 02:02:09;;;;;;;0.10;0.10;;;13.50;99.90;;;;;;4858473;29;20056;-77
2022/10/22 02:04:42;;;;;;;0.20;0.20;;;13.50;99.90;;;;;;4874672;29;20182;-76
2022/10/22 02:07:12;;;;;;;0.20;0.20;;;13.50;99.90;;;;;;4856070;29;20061;-76
2022/10/22 02:09:40;;;;;;;0.20;0.20;;;13.60;99.90;;;;;;4873511;29;20065;-76
2022/10/22 02:12:07;;;;;;;0.20;0.20;;;13.50;99.90;;;;;;4856109;29;21647;-76
2022/10/22 02:14:36;;;;;;;0.20;0.20;;;13.40;99.90;;;;;;4878997;29;20041;-76
2022/10/22 02:17:04;;;;;;;0.13;0.13;;;13.40;99.90;;;;;;4874683;29;20080;-76
2022/10/22 02:19:36;;;;;;;0.20;0.20;;;13.40;99.90;;;;;;4869504;29;20065;-77
2022/10/22 02:22:02;;;;;;;0.20;0.20;;;13.40;99.90;;;;;;4873331;29;20049;-76
2022/10/22 02:24:29;;;;;;;0.17;0.17;;;13.40;99.90;;;;;;4857998;29;20401;-76
2022/10/22 02:27:19;;;;;;;0.10;0.10;;;13.40;99.90;;;;;;4859661;29;20040;-75
2022/10/22 02:29:48;;;;;;;0.10;0.10;;;13.40;99.90;;;;;;4867039;29;20135;-76
2022/10/22 02:32:20;;;;;;;0.20;0.20;;;13.40;99.90;;;;;;4864741;29;20139;-76
2022/10/22 02:34:48;;;;;;;0.15;0.15;;;13.40;99.90;;;;;;4864195;29;20606;-76
2022/10/22 02:37:15;;;;;;;0.10;0.10;;;13.40;99.90;;;;;;4885308;29;20044;-76
2022/10/22 02:39:42;;;;;;;0.20;0.20;;;13.30;99.90;;;;;;4883991;29;20129;-77
2022/10/22 02:42:08;;;;;;;0.10;0.10;;;13.30;99.90;;;;;;4863929;29;20045;-76
2022/10/22 02:44:34;;;;;;;0.15;0.15;;;13.30;99.90;;;;;;4871716;29;20045;-76
2022/10/22 02:46:59;;;;;;;0.10;0.10;;;13.40;99.90;;;;;;4874802;29;20052;-75
2022/10/22 02:49:25;;;;;;;0.17;0.17;;;13.30;99.90;;;;;;4876336;29;20048;-75
2022/10/22 02:51:51;;;;;;;0.20;0.20;;;13.30;99.90;;;;;;4858655;29;20057;-76
2022/10/22 02:54:16;;;;;;;0.20;0.20;;;13.30;99.90;;;;;;4875606;29;20536;-76
2022/10/22 02:56:42;;;;;;;0.10;0.10;;;13.30;99.90;;;;;;4857890;29;20115;-76
2022/10/22 02:59:08;;;;;;;0.10;0.10;;;13.30;99.90;;;;;;4870290;29;20041;-76
2022/10/22 03:01:33;;;;;;;0.10;0.10;;;13.30;99.90;;;;;;4852033;29;20049;-76
2022/10/22 03:03:59;;;;;;;0.10;0.10;;;13.20;99.90;;;;;;4853443;29;20078;-76
2022/10/22 03:06:25;;;;;;;0.10;0.10;;;13.30;99.90;;;;;;4874257;29;20067;-76
2022/10/22 03:08:50;;;;;;;0.13;0.13;;;13.30;99.90;;;;;;4855672;29;20112;-76
2022/10/22 03:11:16;;;;;;;0.20;0.20;;;13.20;99.90;;;;;;4859230;29;20075;-76
2022/10/22 03:13:41;;;;;;;0.10;0.10;;;13.20;99.90;;;;;;4874195;29;20049;-76
2022/10/22 03:16:07;;;;;;;0.10;0.10;;;13.20;99.90;;;;;;4859374;29;20049;-76
2022/10/22 03:18:33;;;;;;;0.10;0.10;;;13.20;99.90;;;;;;4859314;29;20072;-75
2022/10/22 03:21:06;;;;;;;0.13;0.13;;;13.20;99.90;;;;;;4864754;29;20101;-75
2022/10/22 03:23:32;;;;;;;0.20;0.20;;;13.20;99.90;;;;;;4876242;29;20067;-75
2022/10/22 03:25:58;;;;;;;0.15;0.15;;;13.20;99.90;;;;;;4876109;29;20440;-76
2022/10/22 03:28:25;;;;;;;0.10;0.10;;;13.20;99.90;;;;;;4858359;29;20045;-76
2022/10/22 03:30:51;;;;;;;0.10;0.10;;;13.10;99.90;;;;;;4875187;29;20045;-76
2022/10/22 03:33:17;;;;;;;0.10;0.10;;;13.10;99.90;;;;;;4858676;29;20041;-76
2022/10/22 03:35:45;;;;;;;0.10;0.10;;;13.10;99.90;;;;;;4860416;29;20041;-76
2022/10/22 03:38:12;;;;;;;0.20;0.20;;;13.10;99.90;;;;;;4860815;29;20091;-76
2022/10/22 03:40:37;;;;;;;0.20;0.20;;;13.10;99.90;;;;;;4858604;29;20140;-76
2022/10/22 03:43:03;;;;;;;0.10;0.10;;;13.10;99.90;;;;;;4859409;29;20120;-76
2022/10/22 03:45:29;;;;;;;0.10;0.10;;;13.00;99.90;;;;;;4862372;29;20053;-76
2022/10/22 03:47:54;;;;;;;0.20;0.20;;;13.10;99.90;;;;;;4859783;29;20119;-76
2022/10/22 03:50:20;;;;;;;0.10;0.10;;;13.10;99.90;;;;;;4878979;29;20494;-76
2022/10/22 03:52:45;;;;;;;0.10;0.10;;;13.10;99.90;;;;;;4861824;29;20398;-76
2022/10/22 03:55:11;;;;;;;0.10;0.10;;;13.10;99.90;;;;;;4861155;29;20087;-76
2022/10/22 03:57:37;;;;;;;0.10;0.10;;;13.10;99.90;;;;;;4860140;29;20397;-76
2022/10/22 04:00:05;;;;;;;0.10;0.10;;;13.10;99.90;;;;;;4861099;29;20048;-76
2022/10/22 04:02:30;;;;;;;0.20;0.20;;;13.10;99.90;;;;;;4867641;29;20037;-75
2022/10/22 04:04:56;;;;;;;0.20;0.20;;;13.10;99.90;;;;;;4884066;29;20713;-76
2022/10/22 04:07:21;;;;;;;0.10;0.10;;;13.10;99.90;;;;;;4877091;29;20563;-76
2022/10/22 04:09:47;;;;;;;0.10;0.10;;;13.00;99.90;;;;;;4878305;29;20037;-75
2022/10/22 04:12:13;;;;;;;0.10;0.10;;;13.10;99.90;;;;;;4875635;29;20076;-75
2022/10/22 04:14:38;;;;;;;0.10;0.10;;;13.00;99.90;;;;;;4861345;29;20052;-75
2022/10/22 04:17:04;;;;;;;0.20;0.20;;;13.00;99.90;;;;;;4875137;29;20046;-75
2022/10/22 04:19:30;;;;;;;0.10;0.10;;;13.00;99.90;;;;;;4866748;29;20045;-76
2022/10/22 04:21:59;;;;;;;0.10;0.10;;;13.00;99.90;;;;;;4878879;29;20056;-76
2022/10/22 04:24:25;;;;;;;0.10;0.10;;;12.90;99.90;;;;;;4876191;29;20045;-75
2022/10/22 04:26:53;;;;;;;0.10;0.10;;;12.90;99.90;;;;;;4873369;29;20049;-76
2022/10/22 04:29:18;;;;;;;0.10;0.10;;;13.10;99.90;;;;;;4859238;29;20048;-75
2022/10/22 04:31:44;;;;;;;0.10;0.10;;;12.90;99.90;;;;;;4871581;29;20037;-75
2022/10/22 04:34:10;;;;;;;0.20;0.20;;;12.90;99.90;;;;;;4868504;29;20044;-75
2022/10/22 04:36:35;;;;;;;0.20;0.20;;;12.90;99.90;;;;;;4874862;29;20040;-76
2022/10/22 04:39:03;;;;;;;0.10;0.10;;;12.90;99.90;;;;;;4877155;29;20052;-76
2022/10/22 04:41:33;;;;;;;0.15;0.15;;;12.80;99.90;;;;;;4875629;29;20089;-76
2022/10/22 04:43:59;;;;;;;0.15;0.15;;;12.80;99.90;;;;;;4859195;29;20091;-76
2022/10/22 04:46:28;;;;;;;0.10;0.10;;;12.80;99.90;;;;;;4876885;29;20072;-76
2022/10/22 04:48:54;;;;;;;0.10;0.10;;;12.90;99.90;;;;;;4859913;29;20083;-76
2022/10/22 04:51:21;;;;;;;0.10;0.10;;;12.80;99.90;;;;;;4860441;29;20064;-76
2022/10/22 04:53:47;;;;;;;0.13;0.13;;;12.80;99.90;;;;;;4858098;29;20061;-75
2022/10/22 04:56:18;;;;;;;0.10;0.10;;;12.70;99.90;;;;;;4859594;29;20496;-76
2022/10/22 04:58:44;;;;;;;0.20;0.20;;;12.80;99.90;;;;;;4875224;29;20049;-76
2022/10/22 05:01:28;;;;;;;0.10;0.10;;;12.80;99.90;;;;;;4875473;29;20052;-75
2022/10/22 05:03:56;;;;;;;0.20;0.20;;;12.70;99.90;;;;;;4869952;29;20045;-75
2022/10/22 05:06:22;;;;;;;0.17;0.17;;;12.70;99.90;;;;;;4875869;29;20060;-76
2022/10/22 05:08:52;;;;;;;0.10;0.10;;;12.80;99.90;;;;;;4875845;29;20057;-76
2022/10/22 05:11:21;;;;;;;0.20;0.20;;;12.70;99.90;;;;;;4859406;29;20045;-76
2022/10/22 05:13:49;;;;;;;;;;;12.70;99.90;;;;;;4858712;29;20061;-77
2022/10/22 05:16:15;;;;;;;0.10;0.10;;;12.70;99.90;;;;;;4860793;29;19987;-77
2022/10/22 05:18:43;;;;;;;0.10;0.10;;;12.70;99.90;;;;;;4875066;29;20032;-76
2022/10/22 05:21:11;;;;;;;0.17;0.17;;;12.70;99.90;;;;;;4859387;29;20052;-78
2022/10/22 05:23:37;;;;;;;0.10;0.10;;;12.70;99.90;;;;;;4876746;29;20064;-75
2022/10/22 05:26:05;;;;;;;0.20;0.20;;;12.70;99.90;;;;;;4859382;29;20048;-76
2022/10/22 05:28:31;;;;;;;0.20;0.20;;;12.70;99.90;;;;;;4857850;29;20045;-76
2022/10/22 05:30:58;;;;;;;0.10;0.10;;;12.80;99.90;;;;;;4858158;29;20045;-76
2022/10/22 05:33:25;;;;;;;0.10;0.10;;;12.80;99.90;;;;;;4857756;29;20056;-75
2022/10/22 05:35:51;;;;;;;0.20;0.20;;;12.80;99.90;;;;;;4860284;29;20489;-79
2022/10/22 05:38:17;;;;;;;0.10;0.10;;;12.70;99.90;;;;;;4855651;29;20089;-76
2022/10/22 05:40:43;;;;;;;0.10;0.10;;;12.80;99.90;;;;;;4860034;29;20362;-77
2022/10/22 05:43:09;;;;;;;0.10;0.10;;;12.80;99.90;;;;;;4870943;29;20644;-77
2022/10/22 05:45:42;;;;;;;0.10;0.10;;;12.80;99.90;;;;;;4859255;29;20064;-76
2022/10/22 05:48:08;;;;;;;0.43;0.20;;;12.70;99.90;;;;;;4854984;29;20132;-77
2022/10/22 05:50:36;;;;;;;0.10;0.10;;;12.70;99.90;;;;;;4875457;29;20041;-77
2022/10/22 05:53:02;;;;;;;0.20;0.20;;;12.70;99.90;;;;;;4875532;29;20051;-76
2022/10/22 05:55:28;;;;;;;0.10;0.10;;;12.70;99.90;;;;;;4876086;29;20053;-76
2022/10/22 05:57:53;;;;;;;0.20;0.20;;;12.80;99.90;;;;;;4856626;29;20041;-76
2022/10/22 06:00:19;;;;;;;0.10;0.10;;;12.70;99.90;;;;;;4856991;29;20116;-77
2022/10/22 06:02:49;;;;;;;0.10;0.10;;;12.80;99.90;;;;;;4873343;29;20044;-77
2022/10/22 06:05:14;;;;;;;0.10;0.10;;;12.70;99.90;;;;;;4872628;29;20650;-76
2022/10/22 06:07:40;;;;;;;0.10;0.10;;;12.80;99.90;;;;;;4874818;29;20427;-77
2022/10/22 06:10:13;;;;;;;0.10;0.10;;;12.70;99.90;;;;;;4856067;29;20053;-76
2022/10/22 06:12:38;;;;;;;0.10;0.10;;;12.70;99.90;;;;;;4863645;29;20176;-77
2022/10/22 06:15:05;;;;;;;0.20;0.20;;;12.70;99.90;;;;;;4875422;29;20055;-77
2022/10/22 06:17:31;;;;;;;0.13;0.13;;;12.80;99.90;;;;;;4863821;29;20045;-76
2022/10/22 06:19:56;;;;;;;0.20;0.20;;;12.80;99.90;;;;;;4859150;29;20044;-77
2022/10/22 06:22:25;;;;;;;0.20;0.20;;;12.80;99.90;;;;;;4859258;29;20061;-77
2022/10/22 06:24:51;;;;;;;0.20;0.20;;;12.80;99.90;;;;;;4857116;29;20136;-76
2022/10/22 06:27:16;;;;;;;0.10;0.10;;;12.80;99.90;;;;;;4872347;29;20053;-77
2022/10/22 06:29:42;;;;;;;0.10;0.10;;;12.80;99.90;;;;;;4877835;29;20114;-76
2022/10/22 06:32:08;;;;;;;0.10;0.10;;;12.80;99.90;;;;;;4872271;29;20071;-75
2022/10/22 06:34:33;;;;;;;0.10;0.10;;;12.80;99.90;;;;;;4875294;29;20045;-75
2022/10/22 06:36:59;;;;;;;0.10;0.10;;;12.80;99.90;;;;;;4874640;29;20040;-77
2022/10/22 06:39:24;;;;;;;0.10;0.10;;;12.90;99.90;;;;;;4874301;29;20064;-76
2022/10/22 06:41:50;;;;;;;0.10;0.10;;;12.80;99.90;;;;;;4873319;29;20076;-76
2022/10/22 06:44:17;;;;;;;0.20;0.20;;;12.60;99.90;;;;;;4857863;29;20478;-76
2022/10/22 06:46:43;;;;;;;0.10;0.10;;;12.90;99.90;;;;;;4873010;29;20044;-77
2022/10/22 06:49:13;;;;;;;0.10;0.10;;;12.90;99.90;;;;;;4865368;29;20064;-76
2022/10/22 06:51:38;;;;;;;0.10;0.10;;;12.90;99.90;;;;;;4879588;29;20056;-77
2022/10/22 06:54:04;;;;;;;0.10;0.10;;;12.90;99.90;;;;;;4865325;29;20409;-77
2022/10/22 06:56:30;;;;;;;0.10;0.10;;;13.00;99.90;;;;;;4857235;29;20052;-76
2022/10/22 06:58:57;;;;;;;0.15;0.15;;;13.00;99.90;;;;;;4877528;29;20037;-77
2022/10/22 07:01:29;;;;;;;0.10;0.10;;;13.00;99.90;;;;;;4876270;29;20515;-77
2022/10/22 07:03:54;;;;;;;0.10;0.10;;;13.10;99.90;;;;;;4876316;29;20057;-78
2022/10/22 07:06:22;;;;;;;0.10;0.10;;;13.10;99.90;;;;;;4873532;29;20061;-77
2022/10/22 07:08:47;;;;;;;0.10;0.10;;;13.10;99.90;;;;;;4860393;29;20516;-77
2022/10/22 07:11:17;;;;;;;0.10;0.10;;;13.20;99.90;;;;;;4860089;29;20049;-78
2022/10/22 07:13:44;;;;;;;0.10;0.10;;;13.20;99.90;;;;;;4880364;29;20044;-78
2022/10/22 07:16:10;;;;;;;0.10;0.10;;;13.40;99.90;;;;;;4876008;29;20128;-76
2022/10/22 07:18:42;;;;;;;0.10;0.10;;;13.30;99.90;;;;;;4874449;29;20128;-76
2022/10/22 07:21:09;;;;;;;0.10;0.10;;;13.40;99.90;;;;;;4876764;29;20561;-76
2022/10/22 07:23:35;;;;;;;0.20;0.20;;;13.40;99.90;;;;;;4870960;29;20045;-76
2022/10/22 07:26:01;;;;;;;0.13;0.13;;;13.50;99.90;;;;;;4859148;29;20056;-77
2022/10/22 07:28:29;;;;;;;0.10;0.10;;;13.50;99.90;;;;;;4859892;29;20049;-76
2022/10/22 07:30:55;;;;;;;0.10;0.10;;;13.50;99.90;;;;;;4862357;29;20040;-76
2022/10/22 07:33:20;;;;;;;0.20;0.20;;;13.50;99.90;;;;;;4877851;29;20092;-76
2022/10/22 07:35:46;;;;;;;0.10;0.10;;;13.60;99.90;;;;;;4878320;29;20052;-75
2022/10/22 07:38:12;;;;;;;0.10;0.10;;;13.70;99.90;;;;;;4876776;29;20928;-73
2022/10/22 07:40:37;;;;;;;0.10;0.10;;;13.70;99.90;;;;;;4881085;29;20053;-75
2022/10/22 07:43:04;;;;;;;0.20;0.20;;;13.70;99.90;;;;;;4877961;29;20083;-75
2022/10/22 07:45:29;;;;;;;0.10;0.10;;;13.70;99.90;;;;;;4865082;29;20045;-73
2022/10/22 07:47:55;;;;;;;0.10;0.10;;;13.70;99.90;;;;;;4860985;29;20049;-75
2022/10/22 07:50:20;;;;;;;0.17;0.17;;;13.80;99.90;;;;;;4860267;29;20051;-73
2022/10/22 07:52:46;;;;;;;0.10;0.10;;;13.80;99.90;;;;;;4877416;29;20079;-73
2022/10/22 07:55:12;;;;;;;0.17;0.17;;;13.80;99.90;;;;;;4859773;29;21403;-75
2022/10/22 07:57:39;;;;;;;0.17;0.17;;;13.90;99.90;;;;;;4872087;29;20045;-76
2022/10/22 08:00:06;;;;;;;0.10;0.10;;;13.90;99.90;;;;;;4874529;29;20049;-75
2022/10/22 08:02:32;;;;;;;0.17;0.17;;;13.90;99.90;;;;;;4879143;29;20465;-76
2022/10/22 08:04:58;;;;;;;0.10;0.10;;;13.90;99.90;;;;;;4859000;29;20077;-76
2022/10/22 08:07:24;;;;;;;0.10;0.10;;;13.90;99.90;;;;;;4851674;29;20818;-73
2022/10/22 08:09:49;;;;;;;0.10;0.10;;;14.00;99.90;;;;;;4871722;29;20052;-74
2022/10/22 08:12:15;;;;;;;0.10;0.10;;;14.00;99.90;;;;;;4879963;29;20566;-73
2022/10/22 08:14:41;;;;;;;0.10;0.10;;;14.00;99.90;;;;;;4857959;29;20052;-75
2022/10/22 08:17:07;;;;;;;0.10;0.10;;;14.00;99.90;;;;;;4857084;29;20053;-75
2022/10/22 08:19:34;;;;;;;0.10;0.10;;;14.00;99.90;;;;;;4871993;29;20049;-76
2022/10/22 08:22:00;;;;;;;0.15;0.15;;;14.00;99.90;;;;;;4876435;29;20089;-76
2022/10/22 08:24:26;;;;;;;0.10;0.10;;;14.10;99.90;;;;;;4854745;29;20518;-75
2022/10/22 08:26:54;;;;;;;0.10;0.10;;;14.10;99.90;;;;;;4873074;29;20049;-75
2022/10/22 08:29:23;;;;;;;0.10;0.10;;;14.10;99.90;;;;;;4866464;29;20083;-75
2022/10/22 08:31:49;;;;;;;0.10;0.10;;;14.10;99.90;;;;;;4879207;29;20072;-73
2022/10/22 08:34:16;;;;;;;0.10;0.10;;;14.10;99.90;;;;;;4873549;29;20041;-77
2022/10/22 08:36:41;;;;;;;0.20;0.20;;;14.10;99.90;;;;;;4858746;29;20123;-75
2022/10/22 08:39:07;;;;;;;0.20;0.20;;;14.20;99.90;;;;;;4873673;29;20656;-74
2022/10/22 08:41:49;;;;;;;0.10;0.10;;;14.20;99.90;;;;;;4875475;29;20089;-76
2022/10/22 08:44:23;;;;;;;0.13;0.13;;;14.20;99.90;;;;;;4859355;29;20140;-75
2022/10/22 08:47:14;;;;;;;0.10;0.10;;;14.20;99.90;;;;;;4881288;29;20051;-75
2022/10/22 08:49:41;;;;;;;0.20;0.20;;;14.30;99.90;;;;;;4883034;29;20083;-75
2022/10/22 08:52:13;;;;;;;0.10;0.10;;;14.40;99.90;;;;;;4875096;29;20051;-75
2022/10/22 08:55:00;;;;;;;0.20;0.20;;;14.40;99.90;;;;;;4866923;29;20048;-75
2022/10/22 08:57:53;;;;;;;0.10;0.10;;;14.40;99.90;;;;;;4874774;29;20033;-76
2022/10/22 09:00:39;;;;;;;0.10;0.10;;;14.50;99.90;;;;;;4868345;29;20064;-76
2022/10/22 09:03:25;;;;;;;0.10;0.10;;;14.60;99.90;;;;;;4865436;29;20080;-75
2022/10/22 09:06:18;;;;;;;0.20;0.20;;;14.60;99.90;;;;;;4853189;29;20064;-77
2022/10/22 09:08:45;;;;;;;0.10;0.10;;;14.70;99.90;;;;;;4868747;29;20522;-77
2022/10/22 09:11:11;;;;;;;0.15;0.15;;;14.80;99.90;;;;;;4873260;29;20051;-75
2022/10/22 09:13:38;;;;;;;0.20;0.20;;;14.80;99.90;;;;;;4865202;29;20045;-76
2022/10/22 09:16:36;;;;;;;0.20;0.20;;;14.90;99.90;;;;;;4868339;29;20052;-76
2022/10/22 09:19:08;;;;;;;0.10;0.10;;;15.00;99.90;;;;;;4869337;29;20057;-77
2022/10/22 09:21:49;;;;;;;0.10;0.10;;;15.00;99.90;;;;;;4873827;29;20042;-76
2022/10/22 09:24:24;;;;;;;0.13;0.13;;;15.20;99.90;;;;;;4854439;29;20049;-76
2022/10/22 09:26:55;;;;;;;0.10;0.10;;;15.30;99.90;;;;;;4854420;29;20844;-75
2022/10/22 09:29:29;;;;;;;0.20;0.20;;;15.40;99.90;;;;;;4875137;29;20044;-77
2022/10/22 09:31:57;;;;;;;0.10;0.10;;;15.50;99.90;;;;;;4860894;29;20116;-75
2022/10/22 09:34:23;;;;;;;0.10;0.10;;;15.50;99.90;;;;;;4873115;29;20506;-77
2022/10/22 09:37:07;;;;;;;0.20;0.20;;;15.60;99.90;;;;;;4864295;29;20056;-75
2022/10/22 09:39:44;;;;;;;0.20;0.20;;;15.70;99.90;;;;;;4856133;29;20552;-76
2022/10/22 09:42:14;;;;;;;0.10;0.10;;;15.80;99.90;;;;;;4868189;29;20100;-74
2022/10/22 09:44:40;;;;;;;0.10;0.10;;;15.70;99.90;;;;;;4853905;29;20037;-74
2022/10/22 09:47:26;;;;;;;0.10;0.10;;;15.90;99.90;;;;;;4852087;29;20124;-74
2022/10/22 09:50:23;;;;;;;0.10;0.10;;;16.00;99.90;;;;;;4861345;29;20053;-75
2022/10/22 09:53:13;;;;;;;0.10;0.10;;;16.00;99.90;;;;;;4871539;29;20139;-74
2022/10/22 09:55:41;;;;;;;0.10;0.10;;;16.00;99.90;;;;;;4857908;29;20049;-75
2022/10/22 09:58:13;;;;;;;0.15;0.15;;;16.00;99.90;;;;;;4873283;29;20329;-75
2022/10/22 10:00:42;;;;;;;0.10;0.10;;;16.10;99.90;;;;;;4869204;29;20048;-76
2022/10/22 10:03:20;;;;;;;0.20;0.20;;;16.10;99.90;;;;;;4870010;29;20052;-75
2022/10/22 10:05:48;;;;;;;0.10;0.10;;;16.10;99.90;;;;;;4874028;29;20052;-76
2022/10/22 10:08:16;;;;;;;0.20;0.20;;;16.10;99.90;;;;;;4856059;29;20065;-76
2022/10/22 10:10:46;;;;;;;0.13;0.13;;;16.00;99.90;;;;;;4872121;29;20051;-75
2022/10/22 10:13:37;;;;;;;0.20;0.20;;;16.00;99.90;;;;;;4855312;29;20045;-74
2022/10/22 10:16:26;;;;;;;0.13;0.13;;;16.00;99.90;;;;;;4866508;29;20060;-75
2022/10/22 10:19:15;;;;;;;0.20;0.20;;;16.10;99.90;;;;;;4867600;29;20041;-75
2022/10/22 10:22:12;;;;;;;0.15;0.15;;;16.10;99.90;;;;;;4854288;29;20048;-74
2022/10/22 10:24:57;;;;;;;0.20;0.20;;;16.10;99.90;;;;;;4856757;29;20161;-76
2022/10/22 10:27:38;;;;;;;0.10;0.10;;;16.10;99.90;;;;;;4865242;29;20054;-75
2022/10/22 10:30:19;;;;;;;0.15;0.15;;;16.10;99.90;;;;;;4869438;29;20468;-75
2022/10/22 10:33:04;;;;;;;;;;;16.00;99.90;;;;;;4858546;29;20049;-75
2022/10/22 10:35:41;;;;;;;0.10;0.10;;;16.00;99.90;;;;;;4853651;29;19919;-75
2022/10/22 10:38:28;;;;;;;0.20;0.20;;;16.00;99.90;;;;;;4856597;29;20061;-75
2022/10/22 10:41:09;;;;;;;0.20;0.20;;;16.00;99.90;;;;;;4854699;29;20506;-75
2022/10/22 10:43:43;;;;;;;0.20;0.20;;;16.00;99.90;;;;;;4867425;29;20402;-75
2022/10/22 10:46:17;;;;;;;0.10;0.10;;;16.00;99.90;;;;;;4871462;29;20665;-75
2022/10/22 10:48:55;;;;;;;0.10;0.10;;;16.00;99.90;;;;;;4853531;29;20087;-75
2022/10/22 10:51:26;;;;;;;0.10;0.10;;;16.00;99.90;;;;;;4875454;29;20123;-75
2022/10/22 10:54:04;;;;;;;0.20;0.20;;;16.00;99.90;;;;;;4863054;29;20048;-75
2022/10/22 10:56:38;;;;;;;0.20;0.20;;;16.10;99.90;;;;;;4854365;29;20152;-75
2022/10/22 10:59:13;;;;;;;0.20;0.20;;;16.10;99.90;;;;;;4870670;29;20049;-75
2022/10/22 11:02:19;;;;;;;0.20;0.20;;;16.10;99.90;;;;;;4872220;29;20051;-72
2022/10/22 11:05:05;;;;;;;0.20;0.20;;;16.10;99.90;;;;;;4858181;29;20053;-75
2022/10/22 11:07:37;;;;;;;0.10;0.10;;;16.00;99.90;;;;;;4855048;29;20088;-74
2022/10/22 11:10:35;;;;;;;0.20;0.20;;;16.00;99.90;;;;;;4855407;29;20120;-75
2022/10/22 11:13:27;;;;;;;0.10;0.10;;;16.00;99.90;;;;;;4850927;29;20052;-75
2022/10/22 11:16:18;;;;;;;0.20;0.20;;;16.00;99.90;;;;;;4834784;29;20101;-76
2022/10/22 11:19:15;;;;;;;0.20;0.20;;;16.00;99.90;;;;;;4870827;29;20053;-73
2022/10/22 11:21:55;;;;;;;0.20;0.20;;;16.00;99.90;;;;;;4866117;29;20055;-74
2022/10/22 11:24:29;;;;;;;0.13;0.13;;;15.90;99.90;;;;;;4871002;29;20081;-74
2022/10/22 11:27:03;;;;;;;0.10;0.10;;;15.90;99.90;;;;;;4871429;29;20053;-74
2022/10/22 11:29:43;;;;;;;0.20;0.20;;;15.90;99.90;;;;;;4854873;29;20053;-74
2022/10/22 11:32:19;;;;;;;0.20;0.20;;;15.90;99.90;;;;;;4857060;29;20083;-74
2022/10/22 11:34:58;;;;;;;0.17;0.17;;;15.90;99.90;;;;;;4873523;29;20052;-75
2022/10/22 11:37:29;;;;;;;0.20;0.20;;;15.90;99.90;;;;;;4860388;29;20045;-74
2022/10/22 11:40:01;;;;;;;0.20;0.20;;;16.00;99.90;;;;;;4874354;29;20052;-74
2022/10/22 11:43:05;;;;;;;0.20;0.20;;;16.10;99.90;;;;;;4868991;29;20063;-74
2022/10/22 11:45:36;;;;;;;0.20;0.20;;;16.30;99.90;;;;;;4875757;29;20049;-74
2022/10/22 11:48:17;;;;;;;0.15;0.15;;;16.60;99.90;;;;;;4876037;29;20133;-75
2022/10/22 11:50:45;;;;;;;;;;;16.70;99.90;;;;;;4860771;29;20045;-75
2022/10/22 11:53:11;;;;;;;0.20;0.20;;;16.70;99.90;;;;;;4875340;29;19930;-74
2022/10/22 11:55:49;;;;;;;0.20;0.20;;;16.70;99.90;;;;;;4871522;29;20045;-74
2022/10/22 11:58:27;;;;;;;0.20;0.20;;;16.70;99.90;;;;;;4874269;29;20138;-74
2022/10/22 12:00:53;;;;;;;0.15;0.15;;;16.60;99.90;;;;;;4859148;29;20052;-74
2022/10/22 12:03:31;;;;;;;0.20;0.20;;;16.60;99.90;;;;;;4873147;29;20184;-74
2022/10/22 12:06:12;;;;;;;0.20;0.20;;;16.50;99.90;;;;;;4875652;29;20052;-74
2022/10/22 12:08:53;;;;;;;0.20;0.20;;;16.40;99.90;;;;;;4868059;29;20107;-74
2022/10/22 12:11:38;;;;;;;0.20;0.20;;;16.30;99.90;;;;;;4860195;29;20131;-74
2022/10/22 12:14:18;;;;;;;0.10;0.10;;;16.20;99.90;;;;;;4856526;29;20052;-75
2022/10/22 12:16:50;;;;;;;0.10;0.10;;;16.20;99.90;;;;;;4875800;29;20032;-75
2022/10/22 12:19:22;;;;;;;0.20;0.20;;;16.20;99.90;;;;;;4875412;29;20049;-75
2022/10/22 12:21:58;;;;;;;0.20;0.20;;;16.10;99.90;;;;;;4852626;29;20045;-74
2022/10/22 12:24:25;;;;;;;0.10;0.10;;;16.10;99.90;;;;;;4874094;29;20053;-74
2022/10/22 12:26:51;;;;;;;0.20;0.20;;;16.10;99.90;;;;;;4855855;29;20057;-74
2022/10/22 12:29:18;;;;;;;0.20;0.20;;;16.20;99.90;;;;;;4871891;29;20049;-74
2022/10/22 12:31:46;;;;;;;0.13;0.13;;;16.30;99.90;;;;;;4877986;29;20103;-74
2022/10/22 12:34:22;;;;;;;0.20;0.20;;;16.20;99.90;;;;;;4878386;29;20048;-73
2022/10/22 12:36:49;;;;;;;0.20;0.20;;;16.20;99.90;;;;;;4874002;29;20049;-74
2022/10/22 12:39:21;;;;;;;0.20;0.20;;;16.30;99.90;;;;;;4876853;29;20490;-73
2022/10/22 12:41:47;;;;;;;0.20;0.20;;;16.20;99.90;;;;;;4874009;29;20048;-73
2022/10/22 12:44:15;;;;;;;0.10;0.10;;;16.30;99.90;;;;;;4858946;29;20040;-72
2022/10/22 12:46:43;;;;;;;0.20;0.20;;;16.30;99.90;;;;;;4878272;29;20041;-73
2022/10/22 12:49:24;;;;;;;0.20;0.20;;;16.30;99.90;;;;;;4859832;29;20417;-73
2022/10/22 12:51:49;;;;;;;0.20;0.20;;;16.30;99.90;;;;;;4867269;29;20072;-73
2022/10/22 12:54:26;;;;;;;0.20;0.20;;;16.20;99.90;;;;;;4874338;29;20393;-73
2022/10/22 12:56:54;;;;;;;0.20;0.20;;;16.20;99.90;;;;;;4855962;29;20076;-73
2022/10/22 12:59:34;;;;;;;0.20;0.20;;;16.20;99.90;;;;;;4857142;29;20045;-74
2022/10/22 13:02:11;;;;;;;0.20;0.20;;;16.30;99.90;;;;;;4874176;29;20045;-73
2022/10/22 13:04:37;;;;;;;0.10;0.10;;;16.20;99.90;;;;;;4873984;29;21286;-76
2022/10/22 13:07:12;;;;;;;0.20;0.20;;;16.10;99.90;;;;;;4858785;29;20437;-73